createdAt,value
2018-05-15T00:02:15.531Z,19.70
2018-05-15T00:04:45.777Z,19.61
2018-05-15T00:07:13.381Z,19.51
2018-05-15T00:09:42.046Z,19.47
2018-05-15T00:14:48.847Z,19.53
2018-05-15T00:17:18.971Z,19.60
2018-05-15T00:22:24.785Z,19.58
2018-05-15T00:24:52.305Z,19.59
2018-05-15T00:27:20.129Z,19.52
2018-05-15T00:29:47.639Z,19.52
2018-05-15T00:32:15.427Z,19.45
2018-05-15T00:34:42.866Z,19.47
2018-05-15T00:37:10.371Z,19.35
2018-05-15T00:39:37.827Z,19.28
2018-05-15T00:42:14.908Z,19.34
2018-05-15T00:44:42.377Z,19.25
2018-05-15T00:47:10.146Z,19.16
2018-05-15T00:49:37.608Z,19.04
2018-05-15T00:52:28.807Z,19.07
2018-05-15T00:55:08.708Z,19.12
2018-05-15T00:57:36.517Z,19.06
2018-05-15T01:00:03.976Z,19.02
2018-05-15T01:02:31.430Z,18.97
2018-05-15T01:04:58.881Z,18.97
2018-05-15T01:07:26.314Z,18.89
2018-05-15T01:09:53.768Z,18.86
2018-05-15T01:12:21.827Z,18.83
2018-05-15T01:14:49.570Z,18.76
2018-05-15T01:17:17.329Z,18.85
2018-05-15T01:19:45.096Z,18.81
2018-05-15T01:22:14.016Z,18.74
2018-05-15T01:24:41.478Z,18.61
2018-05-15T01:27:09.043Z,18.65
2018-05-15T01:29:36.562Z,18.62
2018-05-15T01:32:04.110Z,18.53
2018-05-15T01:34:31.613Z,18.50
2018-05-15T01:36:59.146Z,18.42
2018-05-15T01:39:26.852Z,18.53
2018-05-15T01:41:54.303Z,18.54
2018-05-15T01:44:21.904Z,18.47
2018-05-15T01:46:49.427Z,18.53
2018-05-15T01:49:17.021Z,18.52
2018-05-15T01:51:44.463Z,18.56
2018-05-15T01:54:11.982Z,18.44
2018-05-15T01:56:40.212Z,18.35
2018-05-15T01:59:07.659Z,18.35
2018-05-15T02:01:35.148Z,18.35
2018-05-15T02:04:02.618Z,18.27
2018-05-15T02:06:31.189Z,18.28
2018-05-15T02:08:58.690Z,18.30
2018-05-15T02:11:26.132Z,18.30
2018-05-15T02:13:53.586Z,18.32
2018-05-15T02:16:21.026Z,18.29
2018-05-15T02:18:48.872Z,18.22
2018-05-15T02:21:16.341Z,18.15
2018-05-15T02:23:44.705Z,18.11
2018-05-15T02:26:12.160Z,17.94
2018-05-15T02:28:39.608Z,17.91
2018-05-15T02:31:07.102Z,17.83
2018-05-15T02:33:34.782Z,17.85
2018-05-15T02:36:02.251Z,17.86
2018-05-15T02:38:29.677Z,17.92
2018-05-15T02:40:57.142Z,17.90
2018-05-15T02:43:24.594Z,17.81
2018-05-15T02:45:52.077Z,17.73
2018-05-15T02:48:19.575Z,17.77
2018-05-15T02:50:47.043Z,17.69
2018-05-15T02:53:14.766Z,17.79
2018-05-15T02:55:42.234Z,17.71
2018-05-15T02:58:09.666Z,17.58
2018-05-15T03:00:37.150Z,17.53
2018-05-15T03:06:02.012Z,17.50
2018-05-15T03:08:29.481Z,17.58
2018-05-15T03:10:56.942Z,17.56
2018-05-15T03:13:30.516Z,17.53
2018-05-15T03:15:58.301Z,17.48
2018-05-15T03:18:25.781Z,17.47
2018-05-15T03:20:53.440Z,17.46
2018-05-15T03:23:22.782Z,17.36
2018-05-15T03:25:50.915Z,17.24
2018-05-15T03:28:19.577Z,17.28
2018-05-15T03:30:48.063Z,17.33
2018-05-15T03:33:15.582Z,17.35
2018-05-15T03:35:43.200Z,17.25
2018-05-15T03:38:11.568Z,17.15
2018-05-15T03:40:38.998Z,17.07
2018-05-15T03:49:06.501Z,16.98
2018-05-15T03:51:33.968Z,17.01
2018-05-15T03:54:01.427Z,17.04
2018-05-15T03:56:28.875Z,17.04
2018-05-15T03:58:56.317Z,17.08
2018-05-15T04:01:35.603Z,17.14
2018-05-15T04:04:15.235Z,17.19
2018-05-15T04:06:54.535Z,17.19
2018-05-15T04:09:22.098Z,17.14
2018-05-15T04:11:49.573Z,17.08
2018-05-15T04:14:17.034Z,17.12
2018-05-15T04:16:44.489Z,17.14
2018-05-15T04:19:11.999Z,17.15
2018-05-15T04:21:39.486Z,17.14
2018-05-15T04:24:06.931Z,17.17
2018-05-15T04:26:34.407Z,17.23
2018-05-15T04:29:01.860Z,17.28
2018-05-15T04:31:29.297Z,17.35
2018-05-15T04:33:56.784Z,17.38
2018-05-15T04:36:25.242Z,17.36
2018-05-15T04:38:52.952Z,17.33
2018-05-15T04:41:20.641Z,17.33
2018-05-15T04:43:48.611Z,17.39
2018-05-15T04:46:16.020Z,17.24
2018-05-15T04:48:43.487Z,17.27
2018-05-15T04:51:11.028Z,17.28
2018-05-15T04:53:38.491Z,17.25
2018-05-15T04:56:05.958Z,17.26
2018-05-15T04:58:33.440Z,17.30
2018-05-15T05:01:00.968Z,17.28
2018-05-15T05:06:30.696Z,17.25
2018-05-15T05:08:58.631Z,17.30
2018-05-15T05:14:28.581Z,17.34
2018-05-15T05:16:56.450Z,17.38
2018-05-15T05:19:23.911Z,17.41
2018-05-15T05:21:51.369Z,17.44
2018-05-15T05:24:18.851Z,17.51
2018-05-15T05:26:46.390Z,17.54
2018-05-15T05:29:14.135Z,17.62
2018-05-15T05:31:41.603Z,17.67
2018-05-15T05:34:09.072Z,17.73
2018-05-15T05:36:36.524Z,17.78
2018-05-15T05:39:03.986Z,17.84
2018-05-15T05:41:36.474Z,17.90
2018-05-15T05:44:03.907Z,17.93
2018-05-15T05:46:31.404Z,17.95
2018-05-15T05:48:58.887Z,17.96
2018-05-15T05:51:26.346Z,18.01
2018-05-15T05:53:53.802Z,17.99
2018-05-15T05:56:21.264Z,17.97
2018-05-15T05:58:48.748Z,18.01
2018-05-15T06:01:16.204Z,18.04
2018-05-15T06:03:43.655Z,18.12
2018-05-15T06:06:11.113Z,18.18
2018-05-15T06:08:38.583Z,18.24
2018-05-15T06:11:06.028Z,18.31
2018-05-15T06:13:38.417Z,18.44
2018-05-15T06:16:05.857Z,18.44
2018-05-15T06:18:33.807Z,18.47
2018-05-15T06:21:01.357Z,18.47
2018-05-15T06:23:28.777Z,18.50
2018-05-15T06:25:56.227Z,18.57
2018-05-15T06:28:23.700Z,18.66
2018-05-15T06:30:51.296Z,18.75
2018-05-15T06:33:19.698Z,18.81
2018-05-15T06:35:47.168Z,18.86
2018-05-15T06:38:14.688Z,18.90
2018-05-15T06:40:42.170Z,18.89
2018-05-15T06:43:23.909Z,18.91
2018-05-15T06:45:51.354Z,18.98
2018-05-15T06:48:18.800Z,19.05
2018-05-15T06:50:46.239Z,19.07
2018-05-15T06:53:32.992Z,19.01
2018-05-15T06:56:00.432Z,19.00
2018-05-15T06:58:27.900Z,19.03
2018-05-15T07:00:55.367Z,19.03
2018-05-15T07:03:22.903Z,19.04
2018-05-15T07:05:50.350Z,19.09
2018-05-15T07:08:18.318Z,19.16
2018-05-15T07:10:45.805Z,19.24
2018-05-15T07:13:13.279Z,19.28
2018-05-15T07:15:40.736Z,19.30
2018-05-15T07:18:08.330Z,19.31
2018-05-15T07:20:35.814Z,19.25
2018-05-15T07:23:03.358Z,19.19
2018-05-15T07:25:30.817Z,19.20
2018-05-15T07:27:58.329Z,19.38
2018-05-15T07:30:25.829Z,19.39
2018-05-15T07:32:53.312Z,19.42
2018-05-15T07:35:20.762Z,19.46
2018-05-15T07:37:48.241Z,19.52
2018-05-15T07:40:15.984Z,19.46
2018-05-15T07:42:43.449Z,19.42
2018-05-15T07:45:10.880Z,19.34
2018-05-15T07:47:38.393Z,19.38
2018-05-15T07:50:06.898Z,19.39
2018-05-15T07:52:34.814Z,19.43
2018-05-15T07:55:02.332Z,19.50
2018-05-15T07:57:29.806Z,19.61
2018-05-15T07:59:57.194Z,19.68
2018-05-15T08:02:25.513Z,19.74
2018-05-15T08:04:53.062Z,19.79
2018-05-15T08:07:20.482Z,19.76
2018-05-15T08:09:47.906Z,19.80
2018-05-15T08:12:15.384Z,19.81
2018-05-15T08:14:42.805Z,19.84
2018-05-15T08:17:10.250Z,19.91
2018-05-15T08:19:37.942Z,19.95
2018-05-15T08:22:05.393Z,20.04
2018-05-15T08:24:32.885Z,20.09
2018-05-15T08:27:00.332Z,20.12
2018-05-15T08:29:27.926Z,20.19
2018-05-15T08:31:55.362Z,20.25
2018-05-15T08:34:22.809Z,20.38
2018-05-15T08:36:50.245Z,20.49
2018-05-15T08:39:17.907Z,20.58
2018-05-15T08:41:55.097Z,20.56
2018-05-15T08:44:22.634Z,20.56
2018-05-15T08:46:50.116Z,20.54
2018-05-15T08:49:17.563Z,20.49
2018-05-15T08:51:50.047Z,20.50
2018-05-15T08:54:17.508Z,20.54
2018-05-15T08:56:44.966Z,20.59
2018-05-15T08:59:12.443Z,20.57
2018-05-15T09:01:39.877Z,20.63
2018-05-15T09:04:07.345Z,20.76
2018-05-15T09:06:34.795Z,20.87
2018-05-15T09:09:02.262Z,20.94
2018-05-15T09:11:29.758Z,21.02
2018-05-15T09:13:57.195Z,21.06
2018-05-15T09:16:24.675Z,21.07
2018-05-15T09:18:52.136Z,21.10
2018-05-15T09:21:19.599Z,21.13
2018-05-15T09:23:47.085Z,21.21
2018-05-15T09:26:14.559Z,21.29
2018-05-15T09:28:42.045Z,21.37
2018-05-15T09:31:09.475Z,21.49
2018-05-15T09:33:41.931Z,21.61
2018-05-15T09:36:09.372Z,21.73
2018-05-15T09:38:36.849Z,21.85
2018-05-15T09:41:04.305Z,21.94
2018-05-15T09:46:26.371Z,22.05
2018-05-15T09:48:53.933Z,21.99
2018-05-15T09:51:21.379Z,21.96
2018-05-15T09:53:48.834Z,21.88
2018-05-15T09:56:16.281Z,21.83
2018-05-15T09:58:43.753Z,21.75
2018-05-15T10:01:12.199Z,21.69
2018-05-15T10:03:39.687Z,21.67
2018-05-15T10:06:07.150Z,21.67
2018-05-15T10:08:34.600Z,21.72
2018-05-15T10:11:02.033Z,21.77
2018-05-15T10:13:29.499Z,21.79
2018-05-15T10:15:56.973Z,21.81
2018-05-15T10:18:24.440Z,21.73
2018-05-15T10:20:51.925Z,21.68
2018-05-15T10:23:19.423Z,21.60
2018-05-15T10:25:46.879Z,21.60
2018-05-15T10:28:14.302Z,21.72
2018-05-15T10:30:41.742Z,21.81
2018-05-15T10:33:09.208Z,21.85
2018-05-15T10:35:36.671Z,21.92
2018-05-15T10:38:04.127Z,21.94
2018-05-15T10:40:31.577Z,22.04
2018-05-15T10:42:59.053Z,22.22
2018-05-15T10:45:26.579Z,22.50
2018-05-15T10:47:54.019Z,22.63
2018-05-15T10:50:21.882Z,22.69
2018-05-15T10:52:49.360Z,22.65
2018-05-15T10:55:16.838Z,22.64
2018-05-15T10:57:44.280Z,22.54
2018-05-15T11:00:11.726Z,22.48
2018-05-15T11:02:39.253Z,22.70
2018-05-15T11:05:06.847Z,23.03
2018-05-15T11:07:34.304Z,23.41
2018-05-15T11:10:01.793Z,23.67
2018-05-15T11:12:29.257Z,23.75
2018-05-15T11:14:56.697Z,23.76
2018-05-15T11:17:24.151Z,23.60
2018-05-15T11:20:03.516Z,23.43
2018-05-15T11:22:42.703Z,23.24
2018-05-15T11:25:10.166Z,23.24
2018-05-15T11:27:37.618Z,23.12
2018-05-15T11:30:05.078Z,22.95
2018-05-15T11:32:32.532Z,22.78
2018-05-15T11:35:00.049Z,22.56
2018-05-15T11:37:27.541Z,22.35
2018-05-15T11:39:55.020Z,22.24
2018-05-15T11:42:22.476Z,22.11
2018-05-15T11:44:49.920Z,22.04
2018-05-15T11:47:17.468Z,22.21
2018-05-15T11:49:46.636Z,22.49
2018-05-15T11:52:13.775Z,22.60
2018-05-15T11:54:40.612Z,22.68
2018-05-15T11:57:08.148Z,22.66
2018-05-15T11:59:35.609Z,22.57
2018-05-15T12:02:03.275Z,22.47
2018-05-15T12:04:30.699Z,22.25
2018-05-15T12:06:58.696Z,22.03
2018-05-15T12:09:26.184Z,21.78
2018-05-15T12:11:53.675Z,21.58
2018-05-15T12:14:21.143Z,21.38
2018-05-15T12:16:48.653Z,21.28
2018-05-15T12:19:16.112Z,21.24
2018-05-15T12:21:43.564Z,21.40
2018-05-15T12:24:11.017Z,21.78
2018-05-15T12:26:38.482Z,22.33
2018-05-15T12:29:05.936Z,22.53
2018-05-15T12:31:33.395Z,22.56
2018-05-15T12:34:00.833Z,22.49
2018-05-15T12:36:28.259Z,22.33
2018-05-15T12:38:56.434Z,22.12
2018-05-15T12:41:23.988Z,21.95
2018-05-15T12:43:51.396Z,21.84
2018-05-15T12:46:18.862Z,21.80
2018-05-15T12:48:46.444Z,21.82
2018-05-15T12:51:13.771Z,21.82
2018-05-15T12:53:41.196Z,21.84
2018-05-15T12:56:08.630Z,22.04
2018-05-15T12:58:36.110Z,22.53
2018-05-15T13:01:03.574Z,23.06
2018-05-15T13:03:31.018Z,23.55
2018-05-15T13:05:58.506Z,23.95
2018-05-15T13:08:25.970Z,24.27
2018-05-15T13:10:53.457Z,24.50
2018-05-15T13:13:20.931Z,24.51
2018-05-15T13:15:48.416Z,24.53
2018-05-15T13:18:15.890Z,24.37
2018-05-15T13:20:43.325Z,24.08
2018-05-15T13:23:11.019Z,23.81
2018-05-15T13:25:38.448Z,23.67
2018-05-15T13:28:06.726Z,23.35
2018-05-15T13:30:34.252Z,23.06
2018-05-15T13:33:01.756Z,22.70
2018-05-15T13:35:29.346Z,22.53
2018-05-15T13:37:56.709Z,22.40
2018-05-15T13:40:24.211Z,22.27
2018-05-15T13:42:51.671Z,21.99
2018-05-15T13:45:19.150Z,21.79
2018-05-15T13:47:46.613Z,21.68
2018-05-15T13:50:14.166Z,21.47
2018-05-15T13:52:41.688Z,21.08
2018-05-15T13:55:09.152Z,20.97
2018-05-15T13:57:36.634Z,20.94
2018-05-15T14:00:04.169Z,20.90
2018-05-15T14:02:31.615Z,20.78
2018-05-15T14:04:59.217Z,20.70
2018-05-15T14:07:26.756Z,20.73
2018-05-15T14:09:54.209Z,20.80
2018-05-15T14:12:21.679Z,20.85
2018-05-15T14:14:49.403Z,20.79
2018-05-15T14:17:17.058Z,20.60
2018-05-15T14:19:44.512Z,20.49
2018-05-15T14:22:11.988Z,20.46
2018-05-15T14:24:39.502Z,20.52
2018-05-15T14:27:06.923Z,20.51
2018-05-15T14:29:34.376Z,20.46
2018-05-15T14:32:01.841Z,20.52
2018-05-15T14:34:29.323Z,20.59
2018-05-15T14:36:56.948Z,20.58
2018-05-15T14:39:24.530Z,20.66
2018-05-15T14:42:03.748Z,20.58
2018-05-15T14:44:31.214Z,20.39
2018-05-15T14:46:59.272Z,20.15
2018-05-15T14:49:28.428Z,20.04
2018-05-15T14:51:56.175Z,19.95
2018-05-15T14:54:23.667Z,19.86
2018-05-15T14:56:51.156Z,19.75
2018-05-15T14:59:18.651Z,19.76
2018-05-15T15:01:51.075Z,19.78
2018-05-15T15:04:18.527Z,19.74
2018-05-15T15:06:46.081Z,19.65
2018-05-15T15:09:13.559Z,19.60
2018-05-15T15:11:41.061Z,19.78
2018-05-15T15:14:08.572Z,19.83
2018-05-15T15:16:36.261Z,19.97
2018-05-15T15:19:03.839Z,20.11
2018-05-15T15:21:31.382Z,20.22
2018-05-15T15:23:58.976Z,20.11
2018-05-15T15:26:27.388Z,20.13
2018-05-15T15:28:55.099Z,20.28
2018-05-15T15:31:23.405Z,20.34
2018-05-15T15:33:50.925Z,20.37
2018-05-15T15:36:18.738Z,20.39
2018-05-15T15:38:46.779Z,20.47
2018-05-15T15:41:14.901Z,20.40
2018-05-15T15:43:42.449Z,20.34
2018-05-15T15:46:09.948Z,20.36
2018-05-15T15:48:37.681Z,20.51
2018-05-15T15:51:05.167Z,20.64
2018-05-15T15:53:32.640Z,20.80
2018-05-15T15:56:00.171Z,20.84
2018-05-15T15:58:27.638Z,20.84
2018-05-15T16:00:55.088Z,20.87
2018-05-15T16:03:23.415Z,20.94
2018-05-15T16:05:51.218Z,20.96
2018-05-15T16:08:18.691Z,20.95
2018-05-15T16:10:47.072Z,20.85
2018-05-15T16:13:19.575Z,20.84
2018-05-15T16:15:47.263Z,20.75
2018-05-15T16:18:14.862Z,20.75
2018-05-15T16:20:43.458Z,20.84
2018-05-15T16:23:10.982Z,20.87
2018-05-15T16:25:38.438Z,20.74
2018-05-15T16:28:05.893Z,20.77
2018-05-15T16:30:33.339Z,20.81
2018-05-15T16:33:10.516Z,20.72
2018-05-15T16:35:38.063Z,20.71
2018-05-15T16:38:06.449Z,20.69
2018-05-15T16:40:33.939Z,20.59
2018-05-15T16:43:01.496Z,20.52
2018-05-15T16:45:28.951Z,20.54
2018-05-15T16:47:56.459Z,20.57
2018-05-15T16:50:24.297Z,20.53
2018-05-15T16:52:51.755Z,20.41
2018-05-15T16:55:19.220Z,20.27
2018-05-15T16:57:47.039Z,20.22
2018-05-15T17:00:14.575Z,20.26
2018-05-15T17:02:42.039Z,20.22
2018-05-15T17:05:09.493Z,20.20
2018-05-15T17:07:36.944Z,20.12
2018-05-15T17:10:04.457Z,20.13
2018-05-15T17:12:32.425Z,20.10
2018-05-15T17:14:59.940Z,20.00
2018-05-15T17:17:27.371Z,19.87
2018-05-15T17:19:54.909Z,19.85
2018-05-15T17:22:22.354Z,19.86
2018-05-15T17:24:49.837Z,19.69
2018-05-15T17:27:17.313Z,19.62
2018-05-15T17:29:44.835Z,19.56
2018-05-15T17:32:12.344Z,19.48
2018-05-15T17:34:39.817Z,19.40
2018-05-15T17:37:07.272Z,19.36
2018-05-15T17:39:34.777Z,19.40
2018-05-15T17:42:02.246Z,19.42
2018-05-15T17:44:29.700Z,19.36
2018-05-15T17:46:57.166Z,19.27
2018-05-15T17:49:25.482Z,19.27
2018-05-15T17:51:52.998Z,19.25
2018-05-15T17:54:21.302Z,19.18
2018-05-15T17:56:48.741Z,18.98
2018-05-15T17:59:16.212Z,18.90
2018-05-15T18:01:43.664Z,18.88
2018-05-15T18:04:11.146Z,18.89
2018-05-15T18:06:38.596Z,18.88
2018-05-15T18:09:06.040Z,18.91
2018-05-15T18:11:33.520Z,18.84
2018-05-15T18:14:00.951Z,18.68
2018-05-15T18:16:28.431Z,18.72
2018-05-15T18:18:55.892Z,18.80
2018-05-15T18:21:23.437Z,18.81
2018-05-15T18:23:50.804Z,18.66
2018-05-15T18:26:18.286Z,18.61
2018-05-15T18:28:45.777Z,18.67
2018-05-15T18:31:13.205Z,18.70
2018-05-15T18:33:40.686Z,18.68
2018-05-15T18:36:08.165Z,18.62
2018-05-15T18:38:35.611Z,18.43
2018-05-15T18:41:03.135Z,18.34
2018-05-15T18:43:30.591Z,18.33
2018-05-15T18:45:58.056Z,18.31
2018-05-15T18:48:25.514Z,18.24
2018-05-15T18:50:53.135Z,18.20
2018-05-15T18:53:20.570Z,18.14
2018-05-15T18:55:48.116Z,18.07
2018-05-15T18:58:15.624Z,18.04
2018-05-15T19:00:43.161Z,18.08
2018-05-15T19:03:10.626Z,18.12
2018-05-15T19:05:38.082Z,18.14
2018-05-15T19:08:05.631Z,18.12
2018-05-15T19:10:33.088Z,18.14
2018-05-15T19:13:00.594Z,18.09
2018-05-15T19:15:28.313Z,18.12
2018-05-15T19:17:55.841Z,18.07
2018-05-15T19:20:23.328Z,18.06
2018-05-15T19:22:50.865Z,17.96
2018-05-15T19:25:18.364Z,17.89
2018-05-15T19:27:46.805Z,17.90
2018-05-15T19:30:14.348Z,17.91
2018-05-15T19:32:41.870Z,17.88
2018-05-15T19:35:09.397Z,17.90
2018-05-15T19:37:36.832Z,17.77
2018-05-15T19:40:10.011Z,17.64
2018-05-15T19:42:42.753Z,17.68
2018-05-15T19:45:10.797Z,17.70
2018-05-15T19:47:38.267Z,17.67
2018-05-15T19:50:05.775Z,17.71
2018-05-15T19:52:57.138Z,17.77
2018-05-15T19:55:24.826Z,17.80
2018-05-15T19:57:52.313Z,17.79
2018-05-15T20:00:20.081Z,17.80
2018-05-15T20:02:47.653Z,17.85
2018-05-15T20:05:15.165Z,17.74
2018-05-15T20:07:42.663Z,17.51
2018-05-15T20:10:10.141Z,17.31
2018-05-15T20:12:37.583Z,17.20
2018-05-15T20:15:05.062Z,17.24
2018-05-15T20:17:32.498Z,17.30
2018-05-15T20:19:59.980Z,17.40
2018-05-15T20:22:27.586Z,17.48
2018-05-15T20:24:57.071Z,17.49
2018-05-15T20:27:24.555Z,17.56
2018-05-15T20:29:52.011Z,17.57
2018-05-15T20:32:19.513Z,17.62
2018-05-15T20:34:50.084Z,17.52
2018-05-15T20:37:17.462Z,17.53
2018-05-15T20:39:44.908Z,17.27
2018-05-15T20:42:12.506Z,17.02
2018-05-15T20:44:39.896Z,16.83
2018-05-15T20:47:08.325Z,16.66
2018-05-15T20:49:35.809Z,16.51
2018-05-15T20:52:03.307Z,16.41
2018-05-15T20:54:30.762Z,16.38
2018-05-15T20:56:58.196Z,16.48
2018-05-15T20:59:25.663Z,16.38
2018-05-15T21:01:53.136Z,16.47
2018-05-15T21:04:21.229Z,16.32
2018-05-15T21:06:48.681Z,16.28
2018-05-15T21:09:16.534Z,16.22
2018-05-15T21:11:43.968Z,16.18
2018-05-15T21:14:11.481Z,16.07
2018-05-15T21:16:38.923Z,16.27
2018-05-15T21:19:06.381Z,16.28
2018-05-15T21:21:33.820Z,16.39
2018-05-15T21:24:01.277Z,16.46
2018-05-15T21:26:28.868Z,16.54
2018-05-15T21:28:56.326Z,16.57
2018-05-15T21:31:23.816Z,16.54
2018-05-15T21:33:51.269Z,16.61
2018-05-15T21:36:19.568Z,16.61
2018-05-15T21:38:47.518Z,16.68
2018-05-15T21:41:17.154Z,16.74
2018-05-15T21:43:44.994Z,16.77
2018-05-15T21:46:12.577Z,16.75
2018-05-15T21:48:41.448Z,16.68
2018-05-15T21:51:09.061Z,16.68
2018-05-15T21:54:00.218Z,16.66
2018-05-15T21:56:29.122Z,16.73
2018-05-15T21:58:57.381Z,16.75
2018-05-15T22:01:25.547Z,16.78
2018-05-15T22:04:07.364Z,16.68
2018-05-15T22:06:36.909Z,16.62
2018-05-15T22:09:05.409Z,16.51
2018-05-15T22:11:44.544Z,16.54
2018-05-15T22:14:24.228Z,16.52
2018-05-15T22:17:03.586Z,16.42
2018-05-15T22:19:42.943Z,16.43
2018-05-15T22:22:29.643Z,16.50
2018-05-15T22:24:57.354Z,16.50
2018-05-15T22:27:24.826Z,16.49
2018-05-15T22:29:52.614Z,16.32
2018-05-15T22:32:20.065Z,16.18
2018-05-15T22:34:47.939Z,16.15
2018-05-15T22:37:15.605Z,16.21
2018-05-15T22:39:43.058Z,16.19
2018-05-15T22:42:10.545Z,16.21
2018-05-15T22:44:38.104Z,16.17
2018-05-15T22:47:05.580Z,16.14
2018-05-15T22:49:33.036Z,16.11
2018-05-15T22:52:00.585Z,16.01
2018-05-15T22:54:28.111Z,16.03
2018-05-15T22:56:55.624Z,16.04
2018-05-15T22:59:23.065Z,16.06
2018-05-15T23:01:50.768Z,16.17
2018-05-15T23:04:18.600Z,16.14
2018-05-15T23:06:46.106Z,16.22
2018-05-15T23:09:13.572Z,16.15
2018-05-15T23:11:41.002Z,16.06
2018-05-15T23:14:08.507Z,15.93
2018-05-15T23:16:36.053Z,15.88
2018-05-15T23:19:03.640Z,15.96
2018-05-15T23:21:31.309Z,16.01
2018-05-15T23:26:52.035Z,16.02
2018-05-15T23:29:19.595Z,16.04
2018-05-15T23:31:46.963Z,15.94
2018-05-15T23:34:14.401Z,15.85
2018-05-15T23:36:41.840Z,15.79
2018-05-15T23:39:09.295Z,15.86
2018-05-15T23:41:36.804Z,15.78
2018-05-15T23:44:04.978Z,15.78
2018-05-15T23:46:32.438Z,15.69
2018-05-15T23:48:59.911Z,15.70
2018-05-15T23:51:27.376Z,15.68
2018-05-15T23:53:54.832Z,15.62
2018-05-15T23:56:22.271Z,15.63
2018-05-15T23:58:49.785Z,15.57
